sensor_id;sensor_type;location;lat;lon;timestamp;pressure;altitude;pressure_sealevel;temperature;humidity
50103;BME280;35993;52.604;10.078;2023-02-20T00:01:26;101854.22;;;4.54;100.00
50103;BME280;35993;52.604;10.078;2023-02-20T00:03:52;101856.78;;;4.55;100.00
50103;BME280;35993;52.604;10.078;2023-02-20T00:06:17;101856.63;;;4.57;100.00
50103;BME280;35993;52.604;10.078;2023-02-20T00:08:43;101853.63;;;4.60;100.00
50103;BME280;35993;52.604;10.078;2023-02-20T00:11:08;101851.25;;;4.57;100.00
50103;BME280;35993;52.604;10.078;2023-02-20T00:13:34;101848.25;;;4.60;100.00
50103;BME280;35993;52.604;10.078;2023-02-20T00:15:59;101848.56;;;4.57;100.00
50103;BME280;35993;52.604;10.078;2023-02-20T00:18:25;101847.41;;;4.59;100.00
50103;BME280;35993;52.604;10.078;2023-02-20T00:20:51;101837.63;;;4.58;100.00
50103;BME280;35993;52.604;10.078;2023-02-20T00:23:16;101841.16;;;4.59;100.00
50103;BME280;35993;52.604;10.078;2023-02-20T00:25:42;101833.09;;;4.59;100.00
50103;BME280;35993;52.604;10.078;2023-02-20T00:28:08;101830.13;;;4.62;100.00
50103;BME280;35993;52.604;10.078;2023-02-20T00:30:33;101821.91;;;4.64;100.00
50103;BME280;35993;52.604;10.078;2023-02-20T00:32:59;101811.13;;;4.64;100.00
50103;BME280;35993;52.604;10.078;2023-02-20T00:35:26;101810.84;;;4.67;100.00
50103;BME280;35993;52.604;10.078;2023-02-20T00:37:53;101810.69;;;4.68;100.00
50103;BME280;35993;52.604;10.078;2023-02-20T00:40:21;101808.94;;;4.77;100.00
50103;BME280;35993;52.604;10.078;2023-02-20T00:42:47;101809.06;;;4.75;100.00
50103;BME280;35993;52.604;10.078;2023-02-20T00:45:14;101806.25;;;4.77;100.00
50103;BME280;35993;52.604;10.078;2023-02-20T00:47:40;101812.31;;;4.79;100.00
50103;BME280;35993;52.604;10.078;2023-02-20T00:50:06;101808.19;;;4.85;100.00
50103;BME280;35993;52.604;10.078;2023-02-20T00:52:32;101801.78;;;4.86;100.00
50103;BME280;35993;52.604;10.078;2023-02-20T00:54:57;101791.88;;;4.86;100.00
50103;BME280;35993;52.604;10.078;2023-02-20T00:57:23;101793.41;;;4.89;100.00
50103;BME280;35993;52.604;10.078;2023-02-20T00:59:48;101792.56;;;4.88;100.00
50103;BME280;35993;52.604;10.078;2023-02-20T01:02:16;101796.94;;;4.89;100.00
50103;BME280;35993;52.604;10.078;2023-02-20T01:04:41;101780.50;;;4.92;100.00
50103;BME280;35993;52.604;10.078;2023-02-20T01:07:08;101779.19;;;4.97;100.00
50103;BME280;35993;52.604;10.078;2023-02-20T01:09:34;101768.59;;;4.95;100.00
50103;BME280;35993;52.604;10.078;2023-02-20T01:11:59;101772.44;;;4.92;100.00
50103;BME280;35993;52.604;10.078;2023-02-20T01:14:25;101759.66;;;4.95;100.00
50103;BME280;35993;52.604;10.078;2023-02-20T01:16:52;101766.03;;;4.93;100.00
50103;BME280;35993;52.604;10.078;2023-02-20T01:19:19;101748.06;;;4.94;100.00
50103;BME280;35993;52.604;10.078;2023-02-20T01:21:45;101753.59;;;4.92;100.00
50103;BME280;35993;52.604;10.078;2023-02-20T01:24:13;101724.50;;;4.96;100.00
50103;BME280;35993;52.604;10.078;2023-02-20T01:26:43;101723.69;;;4.96;100.00
50103;BME280;35993;52.604;10.078;2023-02-20T01:29:09;101726.22;;;4.97;100.00
50103;BME280;35993;52.604;10.078;2023-02-20T01:31:35;101735.00;;;4.99;100.00
50103;BME280;35993;52.604;10.078;2023-02-20T01:34:00;101713.28;;;5.01;100.00
50103;BME280;35993;52.604;10.078;2023-02-20T01:36:26;101714.28;;;5.00;100.00
50103;BME280;35993;52.604;10.078;2023-02-20T01:38:52;101702.84;;;4.98;100.00
50103;BME280;35993;52.604;10.078;2023-02-20T01:41:20;101710.59;;;5.01;100.00
50103;BME280;35993;52.604;10.078;2023-02-20T01:43:46;101708.78;;;5.01;100.00
50103;BME280;35993;52.604;10.078;2023-02-20T01:46:42;101709.78;;;5.00;100.00
50103;BME280;35993;52.604;10.078;2023-02-20T01:49:11;101716.16;;;4.99;100.00
50103;BME280;35993;52.604;10.078;2023-02-20T01:51:41;101704.38;;;5.00;100.00
50103;BME280;35993;52.604;10.078;2023-02-20T01:54:10;101691.75;;;5.01;100.00
50103;BME280;35993;52.604;10.078;2023-02-20T01:56:39;101700.16;;;4.98;100.00
50103;BME280;35993;52.604;10.078;2023-02-20T01:59:05;101697.47;;;4.98;100.00
50103;BME280;35993;52.604;10.078;2023-02-20T02:01:32;101685.56;;;5.00;100.00
50103;BME280;35993;52.604;10.078;2023-02-20T02:04:01;101679.19;;;5.01;100.00
50103;BME280;35993;52.604;10.078;2023-02-20T02:06:28;101673.25;;;4.98;100.00
50103;BME280;35993;52.604;10.078;2023-02-20T02:08:59;101673.09;;;4.99;100.00
50103;BME280;35993;52.604;10.078;2023-02-20T02:11:27;101661.00;;;5.03;100.00
50103;BME280;35993;52.604;10.078;2023-02-20T02:13:54;101645.47;;;4.97;100.00
50103;BME280;35993;52.604;10.078;2023-02-20T02:16:42;101654.09;;;5.01;100.00
50103;BME280;35993;52.604;10.078;2023-02-20T02:22:06;101630.88;;;5.00;100.00
50103;BME280;35993;52.604;10.078;2023-02-20T02:27:41;101621.97;;;4.99;100.00
50103;BME280;35993;52.604;10.078;2023-02-20T02:33:07;101607.13;;;4.95;100.00
50103;BME280;35993;52.604;10.078;2023-02-20T02:39:01;101603.75;;;4.93;100.00
50103;BME280;35993;52.604;10.078;2023-02-20T02:49:29;101603.59;;;4.95;100.00
50103;BME280;35993;52.604;10.078;2023-02-20T02:51:58;101606.97;;;4.97;100.00
50103;BME280;35993;52.604;10.078;2023-02-20T02:54:26;101599.19;;;4.93;100.00
50103;BME280;35993;52.604;10.078;2023-02-20T02:57:14;101599.53;;;4.90;100.00
50103;BME280;35993;52.604;10.078;2023-02-20T02:59:39;101589.47;;;4.92;100.00
50103;BME280;35993;52.604;10.078;2023-02-20T03:02:12;101585.25;;;4.90;100.00
50103;BME280;35993;52.604;10.078;2023-02-20T03:04:40;101580.53;;;4.92;100.00
50103;BME280;35993;52.604;10.078;2023-02-20T03:07:10;101580.91;;;4.97;100.00
50103;BME280;35993;52.604;10.078;2023-02-20T03:09:42;101585.13;;;5.00;100.00
50103;BME280;35993;52.604;10.078;2023-02-20T03:12:11;101585.44;;;4.97;100.00
50103;BME280;35993;52.604;10.078;2023-02-20T03:14:46;101592.53;;;4.98;100.00
50103;BME280;35993;52.604;10.078;2023-02-20T03:17:44;101588.50;;;5.02;100.00
50103;BME280;35993;52.604;10.078;2023-02-20T03:20:15;101578.44;;;5.04;100.00
50103;BME280;35993;52.604;10.078;2023-02-20T03:22:49;101564.97;;;5.04;100.00
50103;BME280;35993;52.604;10.078;2023-02-20T03:25:21;101572.34;;;5.02;100.00
50103;BME280;35993;52.604;10.078;2023-02-20T03:27:54;101568.50;;;5.04;100.00
50103;BME280;35993;52.604;10.078;2023-02-20T03:33:24;101540.25;;;5.08;100.00
50103;BME280;35993;52.604;10.078;2023-02-20T03:36:16;101534.72;;;5.10;100.00
50103;BME280;35993;52.604;10.078;2023-02-20T03:39:07;101556.59;;;5.15;100.00
50103;BME280;35993;52.604;10.078;2023-02-20T03:41:55;101551.09;;;5.17;100.00
50103;BME280;35993;52.604;10.078;2023-02-20T03:44:45;101526.00;;;5.16;100.00
50103;BME280;35993;52.604;10.078;2023-02-20T03:47:13;101513.53;;;5.15;100.00
50103;BME280;35993;52.604;10.078;2023-02-20T03:49:41;101513.53;;;5.15;100.00
50103;BME280;35993;52.604;10.078;2023-02-20T03:52:10;101498.91;;;5.18;100.00
50103;BME280;35993;52.604;10.078;2023-02-20T03:54:38;101502.28;;;5.20;100.00
50103;BME280;35993;52.604;10.078;2023-02-20T03:57:10;101499.44;;;5.21;100.00
50103;BME280;35993;52.604;10.078;2023-02-20T03:59:42;101500.66;;;5.27;100.00
50103;BME280;35993;52.604;10.078;2023-02-20T04:02:40;101513.78;;;5.30;100.00
50103;BME280;35993;52.604;10.078;2023-02-20T04:05:16;101521.84;;;5.30;100.00
50103;BME280;35993;52.604;10.078;2023-02-20T04:07:57;101536.31;;;5.29;100.00
50103;BME280;35993;52.604;10.078;2023-02-20T04:10:30;101521.69;;;5.32;100.00
50103;BME280;35993;52.604;10.078;2023-02-20T04:12:59;101537.69;;;5.33;100.00
50103;BME280;35993;52.604;10.078;2023-02-20T04:15:27;101532.31;;;5.33;100.00
50103;BME280;35993;52.604;10.078;2023-02-20T04:17:59;101530.28;;;5.35;100.00
50103;BME280;35993;52.604;10.078;2023-02-20T04:20:28;101517.69;;;5.36;100.00
50103;BME280;35993;52.604;10.078;2023-02-20T04:23:09;101498.66;;;5.37;100.00
50103;BME280;35993;52.604;10.078;2023-02-20T04:25:48;101491.59;;;5.36;100.00
50103;BME280;35993;52.604;10.078;2023-02-20T04:28:17;101449.34;;;5.37;100.00
50103;BME280;35993;52.604;10.078;2023-02-20T04:30:50;101462.31;;;5.41;100.00
50103;BME280;35993;52.604;10.078;2023-02-20T04:33:17;101465.00;;;5.41;100.00
50103;BME280;35993;52.604;10.078;2023-02-20T04:35:44;101447.00;;;5.42;100.00
50103;BME280;35993;52.604;10.078;2023-02-20T04:38:10;101460.16;;;5.45;100.00
50103;BME280;35993;52.604;10.078;2023-02-20T04:40:36;101463.50;;;5.47;100.00
50103;BME280;35993;52.604;10.078;2023-02-20T04:43:02;101454.25;;;5.50;100.00
50103;BME280;35993;52.604;10.078;2023-02-20T04:45:28;101474.63;;;5.52;100.00
50103;BME280;35993;52.604;10.078;2023-02-20T04:47:54;101469.75;;;5.56;100.00
50103;BME280;35993;52.604;10.078;2023-02-20T04:50:29;101473.44;;;5.55;100.00
50103;BME280;35993;52.604;10.078;2023-02-20T04:52:57;101488.94;;;5.53;100.00
50103;BME280;35993;52.604;10.078;2023-02-20T04:55:23;101475.66;;;5.51;100.00
50103;BME280;35993;52.604;10.078;2023-02-20T04:57:52;101476.66;;;5.50;100.00
50103;BME280;35993;52.604;10.078;2023-02-20T05:00:21;101475.13;;;5.48;100.00
50103;BME280;35993;52.604;10.078;2023-02-20T05:02:47;101472.63;;;5.46;100.00
50103;BME280;35993;52.604;10.078;2023-02-20T05:05:24;101454.94;;;5.44;100.00
50103;BME280;35993;52.604;10.078;2023-02-20T05:07:58;101458.28;;;5.46;100.00
50103;BME280;35993;52.604;10.078;2023-02-20T05:10:26;101459.28;;;5.45;100.00
50103;BME280;35993;52.604;10.078;2023-02-20T05:12:52;101454.25;;;5.41;100.00
50103;BME280;35993;52.604;10.078;2023-02-20T05:15:19;101449.38;;;5.45;100.00
50103;BME280;35993;52.604;10.078;2023-02-20T05:17:45;101441.47;;;5.44;100.00
50103;BME280;35993;52.604;10.078;2023-02-20T05:20:11;101443.34;;;5.51;100.00
50103;BME280;35993;52.604;10.078;2023-02-20T05:22:37;101442.31;;;5.52;100.00
50103;BME280;35993;52.604;10.078;2023-02-20T05:25:03;101436.78;;;5.54;100.00
50103;BME280;35993;52.604;10.078;2023-02-20T05:27:29;101432.22;;;5.54;100.00
50103;BME280;35993;52.604;10.078;2023-02-20T05:29:56;101418.56;;;5.56;100.00
50103;BME280;35993;52.604;10.078;2023-02-20T05:32:23;101415.88;;;5.56;100.00
50103;BME280;35993;52.604;10.078;2023-02-20T05:34:53;101413.88;;;5.58;100.00
50103;BME280;35993;52.604;10.078;2023-02-20T05:37:19;101398.41;;;5.60;100.00
50103;BME280;35993;52.604;10.078;2023-02-20T05:39:46;101399.22;;;5.61;100.00
50103;BME280;35993;52.604;10.078;2023-02-20T05:42:12;101389.97;;;5.63;100.00
50103;BME280;35993;52.604;10.078;2023-02-20T05:44:38;101380.53;;;5.67;100.00
50103;BME280;35993;52.604;10.078;2023-02-20T05:47:04;101390.31;;;5.68;100.00
50103;BME280;35993;52.604;10.078;2023-02-20T05:49:30;101372.78;;;5.72;100.00
50103;BME280;35993;52.604;10.078;2023-02-20T05:51:57;101369.78;;;5.76;100.00
50103;BME280;35993;52.604;10.078;2023-02-20T05:54:23;101368.59;;;5.78;100.00
50103;BME280;35993;52.604;10.078;2023-02-20T05:56:49;101373.81;;;5.80;100.00
50103;BME280;35993;52.604;10.078;2023-02-20T05:59:17;101379.03;;;5.81;100.00
50103;BME280;35993;52.604;10.078;2023-02-20T06:01:43;101364.53;;;5.82;100.00
50103;BME280;35993;52.604;10.078;2023-02-20T06:04:09;101361.84;;;5.82;100.00
50103;BME280;35993;52.604;10.078;2023-02-20T06:06:40;101358.81;;;5.85;100.00
50103;BME280;35993;52.604;10.078;2023-02-20T06:09:08;101358.97;;;5.84;100.00
50103;BME280;35993;52.604;10.078;2023-02-20T06:11:35;101361.50;;;5.85;100.00
50103;BME280;35993;52.604;10.078;2023-02-20T06:14:02;101365.38;;;5.91;100.00
50103;BME280;35993;52.604;10.078;2023-02-20T06:16:29;101364.84;;;5.96;100.00
50103;BME280;35993;52.604;10.078;2023-02-20T06:18:55;101363.34;;;5.93;100.00
50103;BME280;35993;52.604;10.078;2023-02-20T06:21:22;101371.66;;;6.00;100.00
50103;BME280;35993;52.604;10.078;2023-02-20T06:23:49;101360.69;;;6.01;100.00
50103;BME280;35993;52.604;10.078;2023-02-20T06:26:17;101366.25;;;6.00;100.00
50103;BME280;35993;52.604;10.078;2023-02-20T06:28:43;101359.19;;;5.99;100.00
50103;BME280;35993;52.604;10.078;2023-02-20T06:31:10;101364.56;;;5.99;100.00
50103;BME280;35993;52.604;10.078;2023-02-20T06:33:36;101364.03;;;6.03;100.00
50103;BME280;35993;52.604;10.078;2023-02-20T06:36:02;101358.16;;;6.00;100.00
50103;BME280;35993;52.604;10.078;2023-02-20T06:38:28;101353.09;;;6.05;100.00
50103;BME280;35993;52.604;10.078;2023-02-20T06:40:53;101344.84;;;6.06;100.00
50103;BME280;35993;52.604;10.078;2023-02-20T06:43:19;101346.19;;;6.02;100.00
50103;BME280;35993;52.604;10.078;2023-02-20T06:45:45;101349.22;;;6.07;100.00
50103;BME280;35993;52.604;10.078;2023-02-20T06:48:11;101341.47;;;6.13;100.00
50103;BME280;35993;52.604;10.078;2023-02-20T06:50:39;101343.66;;;6.09;100.00
50103;BME280;35993;52.604;10.078;2023-02-20T06:53:05;101348.19;;;6.09;100.00
50103;BME280;35993;52.604;10.078;2023-02-20T06:55:31;101347.19;;;6.10;100.00
50103;BME280;35993;52.604;10.078;2023-02-20T06:57:57;101344.16;;;6.13;100.00
50103;BME280;35993;52.604;10.078;2023-02-20T07:00:23;101345.66;;;6.15;100.00
50103;BME280;35993;52.604;10.078;2023-02-20T07:02:49;101350.69;;;6.18;100.00
50103;BME280;35993;52.604;10.078;2023-02-20T07:05:14;101349.19;;;6.16;100.00
50103;BME280;35993;52.604;10.078;2023-02-20T07:07:40;101358.28;;;6.23;100.00
50103;BME280;35993;52.604;10.078;2023-02-20T07:10:06;101342.09;;;6.23;100.00
50103;BME280;35993;52.604;10.078;2023-02-20T07:12:32;101354.91;;;6.21;100.00
50103;BME280;35993;52.604;10.078;2023-02-20T07:14:58;101351.19;;;6.22;100.00
50103;BME280;35993;52.604;10.078;2023-02-20T07:17:24;101349.00;;;6.26;100.00
50103;BME280;35993;52.604;10.078;2023-02-20T07:19:50;101339.91;;;6.27;100.00
50103;BME280;35993;52.604;10.078;2023-02-20T07:22:16;101336.53;;;6.25;100.00
50103;BME280;35993;52.604;10.078;2023-02-20T07:24:41;101336.19;;;6.28;100.00
50103;BME280;35993;52.604;10.078;2023-02-20T07:27:08;101314.47;;;6.29;100.00
50103;BME280;35993;52.604;10.078;2023-02-20T07:29:36;101320.00;;;6.28;100.00
50103;BME280;35993;52.604;10.078;2023-02-20T07:32:02;101317.66;;;6.25;100.00
50103;BME280;35993;52.604;10.078;2023-02-20T07:34:27;101319.53;;;6.24;100.00
50103;BME280;35993;52.604;10.078;2023-02-20T07:36:53;101322.53;;;6.29;100.00
50103;BME280;35993;52.604;10.078;2023-02-20T07:39:18;101332.47;;;6.29;100.00
50103;BME280;35993;52.604;10.078;2023-02-20T07:41:44;101337.88;;;6.29;100.00
50103;BME280;35993;52.604;10.078;2023-02-20T07:44:29;101333.34;;;6.29;100.00
50103;BME280;35993;52.604;10.078;2023-02-20T07:46:55;101344.25;;;6.28;100.00
50103;BME280;35993;52.604;10.078;2023-02-20T07:49:21;101344.13;;;6.29;100.00
50103;BME280;35993;52.604;10.078;2023-02-20T07:51:46;101364.66;;;6.30;100.00
50103;BME280;35993;52.604;10.078;2023-02-20T07:54:12;101356.56;;;6.30;100.00
50103;BME280;35993;52.604;10.078;2023-02-20T07:56:39;101354.38;;;6.34;100.00
50103;BME280;35993;52.604;10.078;2023-02-20T07:59:05;101349.84;;;6.34;100.00
50103;BME280;35993;52.604;10.078;2023-02-20T08:01:30;101354.19;;;6.35;100.00
50103;BME280;35993;52.604;10.078;2023-02-20T08:03:56;101338.38;;;6.32;100.00
50103;BME280;35993;52.604;10.078;2023-02-20T08:06:21;101336.03;;;6.29;100.00
50103;BME280;35993;52.604;10.078;2023-02-20T08:08:51;101337.19;;;6.35;100.00
50103;BME280;35993;52.604;10.078;2023-02-20T08:11:17;101331.28;;;6.31;100.00
50103;BME280;35993;52.604;10.078;2023-02-20T08:13:44;101328.78;;;6.30;100.00
50103;BME280;35993;52.604;10.078;2023-02-20T08:16:10;101319.84;;;6.29;100.00
50103;BME280;35993;52.604;10.078;2023-02-20T08:18:35;101321.69;;;6.29;100.00
50103;BME280;35993;52.604;10.078;2023-02-20T08:21:01;101322.19;;;6.32;100.00
50103;BME280;35993;52.604;10.078;2023-02-20T08:23:27;101327.94;;;6.29;100.00
50103;BME280;35993;52.604;10.078;2023-02-20T08:25:52;101321.00;;;6.35;100.00
50103;BME280;35993;52.604;10.078;2023-02-20T08:28:18;101314.94;;;6.33;100.00
50103;BME280;35993;52.604;10.078;2023-02-20T08:30:44;101312.22;;;6.33;100.00
50103;BME280;35993;52.604;10.078;2023-02-20T08:33:10;101314.94;;;6.33;100.00
50103;BME280;35993;52.604;10.078;2023-02-20T08:35:36;101324.53;;;6.35;100.00
50103;BME280;35993;52.604;10.078;2023-02-20T08:38:02;101312.59;;;6.30;100.00
50103;BME280;35993;52.604;10.078;2023-02-20T08:40:28;101318.47;;;6.33;100.00
50103;BME280;35993;52.604;10.078;2023-02-20T08:42:54;101328.78;;;6.30;100.00
50103;BME280;35993;52.604;10.078;2023-02-20T08:45:20;101324.56;;;6.27;100.00
50103;BME280;35993;52.604;10.078;2023-02-20T08:47:45;101326.94;;;6.22;100.00
50103;BME280;35993;52.604;10.078;2023-02-20T08:50:13;101330.81;;;6.19;100.00
50103;BME280;35993;52.604;10.078;2023-02-20T08:52:41;101336.91;;;6.21;100.00
50103;BME280;35993;52.604;10.078;2023-02-20T08:55:07;101327.63;;;6.24;100.00
50103;BME280;35993;52.604;10.078;2023-02-20T08:57:33;101326.75;;;6.23;100.00
50103;BME280;35993;52.604;10.078;2023-02-20T08:59:58;101319.34;;;6.26;100.00
50103;BME280;35993;52.604;10.078;2023-02-20T09:02:24;101304.84;;;6.27;100.00
50103;BME280;35993;52.604;10.078;2023-02-20T09:04:53;101305.88;;;6.26;100.00
50103;BME280;35993;52.604;10.078;2023-02-20T09:07:19;101308.56;;;6.26;100.00
50103;BME280;35993;52.604;10.078;2023-02-20T09:09:44;101311.75;;;6.29;100.00
50103;BME280;35993;52.604;10.078;2023-02-20T09:12:10;101298.59;;;6.26;100.00
50103;BME280;35993;52.604;10.078;2023-02-20T09:14:36;101294.38;;;6.32;100.00
50103;BME280;35993;52.604;10.078;2023-02-20T09:17:02;101282.94;;;6.30;100.00
50103;BME280;35993;52.604;10.078;2023-02-20T09:19:29;101285.94;;;6.35;100.00
50103;BME280;35993;52.604;10.078;2023-02-20T09:21:55;101290.66;;;6.33;100.00
50103;BME280;35993;52.604;10.078;2023-02-20T09:24:21;101301.13;;;6.36;100.00
50103;BME280;35993;52.604;10.078;2023-02-20T09:26:46;101280.53;;;6.35;100.00
50103;BME280;35993;52.604;10.078;2023-02-20T09:29:12;101289.47;;;6.35;100.00
50103;BME280;35993;52.604;10.078;2023-02-20T09:31:37;101275.84;;;6.37;100.00
50103;BME280;35993;52.604;10.078;2023-02-20T09:34:03;101278.53;;;6.37;100.00
50103;BME280;35993;52.604;10.078;2023-02-20T09:36:29;101286.25;;;6.40;100.00
50103;BME280;35993;52.604;10.078;2023-02-20T09:38:54;101278.16;;;6.40;100.00
50103;BME280;35993;52.604;10.078;2023-02-20T09:44:28;101265.47;;;6.49;100.00
50103;BME280;35993;52.604;10.078;2023-02-20T09:46:59;101241.50;;;6.54;100.00
50103;BME280;35993;52.604;10.078;2023-02-20T09:49:29;101246.09;;;6.53;100.00
50103;BME280;35993;52.604;10.078;2023-02-20T09:52:08;101237.31;;;6.51;100.00
50103;BME280;35993;52.604;10.078;2023-02-20T09:54:46;101235.44;;;6.52;100.00
50103;BME280;35993;52.604;10.078;2023-02-20T09:57:17;101245.94;;;6.47;100.00
50103;BME280;35993;52.604;10.078;2023-02-20T09:59:51;101236.94;;;6.54;100.00
50103;BME280;35993;52.604;10.078;2023-02-20T10:02:22;101234.44;;;6.53;100.00
50103;BME280;35993;52.604;10.078;2023-02-20T10:04:51;101230.72;;;6.54;100.00
50103;BME280;35993;52.604;10.078;2023-02-20T10:07:37;101235.09;;;6.55;100.00
50103;BME280;35993;52.604;10.078;2023-02-20T10:13:04;101258.19;;;6.58;100.00
50103;BME280;35993;52.604;10.078;2023-02-20T10:18:35;101246.38;;;6.59;100.00
50103;BME280;35993;52.604;10.078;2023-02-20T10:21:15;101237.94;;;6.62;100.00
50103;BME280;35993;52.604;10.078;2023-02-20T10:23:47;101238.94;;;6.61;100.00
50103;BME280;35993;52.604;10.078;2023-02-20T10:26:19;101244.00;;;6.64;100.00
50103;BME280;35993;52.604;10.078;2023-02-20T10:28:48;101246.84;;;6.62;100.00
50103;BME280;35993;52.604;10.078;2023-02-20T10:34:08;101233.84;;;6.66;100.00
50103;BME280;35993;52.604;10.078;2023-02-20T10:36:45;101239.25;;;6.66;100.00
50103;BME280;35993;52.604;10.078;2023-02-20T10:39:14;101246.50;;;6.65;100.00
50103;BME280;35993;52.604;10.078;2023-02-20T10:41:51;101247.16;;;6.67;100.00
50103;BME280;35993;52.604;10.078;2023-02-20T10:44:28;101240.75;;;6.68;100.00
50103;BME280;35993;52.604;10.078;2023-02-20T10:52:27;101251.84;;;6.73;100.00
50103;BME280;35993;52.604;10.078;2023-02-20T10:57:48;101244.94;;;6.71;100.00
50103;BME280;35993;52.604;10.078;2023-02-20T11:02:58;101236.66;;;6.72;100.00
50103;BME280;35993;52.604;10.078;2023-02-20T11:05:28;101235.66;;;6.73;100.00
50103;BME280;35993;52.604;10.078;2023-02-20T11:07:55;101245.63;;;6.73;100.00
50103;BME280;35993;52.604;10.078;2023-02-20T11:10:21;101245.63;;;6.73;100.00
50103;BME280;35993;52.604;10.078;2023-02-20T11:12:52;101236.97;;;6.78;100.00
50103;BME280;35993;52.604;10.078;2023-02-20T11:15:23;101226.03;;;6.79;100.00
50103;BME280;35993;52.604;10.078;2023-02-20T11:17:54;101236.63;;;6.81;100.00
50103;BME280;35993;52.604;10.078;2023-02-20T11:23:32;101211.47;;;6.80;100.00
50103;BME280;35993;52.604;10.078;2023-02-20T11:26:23;101203.56;;;6.79;100.00
50103;BME280;35993;52.604;10.078;2023-02-20T11:29:02;101201.72;;;6.79;100.00
50103;BME280;35993;52.604;10.078;2023-02-20T11:31:30;101193.63;;;6.79;100.00
50103;BME280;35993;52.604;10.078;2023-02-20T11:33:55;101182.84;;;6.79;100.00
50103;BME280;35993;52.604;10.078;2023-02-20T11:36:33;101183.47;;;6.81;100.00
50103;BME280;35993;52.604;10.078;2023-02-20T11:39:02;101172.03;;;6.79;100.00
50103;BME280;35993;52.604;10.078;2023-02-20T11:41:33;101177.25;;;6.81;100.00
50103;BME280;35993;52.604;10.078;2023-02-20T11:46:39;101176.41;;;6.80;100.00
50103;BME280;35993;52.604;10.078;2023-02-20T11:49:07;101176.53;;;6.87;100.00
50103;BME280;35993;52.604;10.078;2023-02-20T11:54:20;101176.72;;;6.85;100.00
50103;BME280;35993;52.604;10.078;2023-02-20T11:57:10;101170.19;;;6.80;100.00
50103;BME280;35993;52.604;10.078;2023-02-20T11:59:47;101175.56;;;6.80;100.00
50103;BME280;35993;52.604;10.078;2023-02-20T12:09:48;101157.06;;;6.77;100.00
50103;BME280;35993;52.604;10.078;2023-02-20T12:12:15;101183.84;;;6.78;100.00
50103;BME280;35993;52.604;10.078;2023-02-20T12:14:41;101191.56;;;6.81;100.00
50103;BME280;35993;52.604;10.078;2023-02-20T12:17:34;101167.47;;;6.80;100.00
50103;BME280;35993;52.604;10.078;2023-02-20T12:20:07;101187.38;;;6.79;100.00
50103;BME280;35993;52.604;10.078;2023-02-20T12:22:36;101203.38;;;6.80;100.00
50103;BME280;35993;52.604;10.078;2023-02-20T12:25:23;101187.03;;;6.82;100.00
50103;BME280;35993;52.604;10.078;2023-02-20T12:28:07;101180.31;;;6.78;100.00
50103;BME280;35993;52.604;10.078;2023-02-20T12:36:39;101165.50;;;6.73;100.00
50103;BME280;35993;52.604;10.078;2023-02-20T12:47:31;101182.53;;;6.74;100.00
50103;BME280;35993;52.604;10.078;2023-02-20T12:50:09;101170.72;;;6.75;100.00
50103;BME280;35993;52.604;10.078;2023-02-20T12:52:51;101175.94;;;6.77;100.00
50103;BME280;35993;52.604;10.078;2023-02-20T12:55:28;101189.44;;;6.77;100.00
50103;BME280;35993;52.604;10.078;2023-02-20T12:58:09;101176.97;;;6.76;100.00
50103;BME280;35993;52.604;10.078;2023-02-20T13:00:40;101162.28;;;6.78;100.00
50103;BME280;35993;52.604;10.078;2023-02-20T13:03:09;101175.69;;;6.86;100.00
50103;BME280;35993;52.604;10.078;2023-02-20T13:05:39;101167.78;;;6.85;100.00
50103;BME280;35993;52.604;10.078;2023-02-20T13:08:32;101168.25;;;6.88;100.00
50103;BME280;35993;52.604;10.078;2023-02-20T13:10:57;101167.88;;;6.92;100.00
50103;BME280;35993;52.604;10.078;2023-02-20T13:13:48;101167.88;;;6.92;100.00
50103;BME280;35993;52.604;10.078;2023-02-20T13:16:30;101167.34;;;6.96;100.00
50103;BME280;35993;52.604;10.078;2023-02-20T13:19:06;101172.56;;;6.98;100.00
50103;BME280;35993;52.604;10.078;2023-02-20T13:21:38;101153.94;;;7.03;100.00
50103;BME280;35993;52.604;10.078;2023-02-20T13:26:51;101134.31;;;7.09;100.00
50103;BME280;35993;52.604;10.078;2023-02-20T13:29:25;101132.09;;;7.13;100.00
50103;BME280;35993;52.604;10.078;2023-02-20T13:32:00;101140.19;;;7.13;100.00
50103;BME280;35993;52.604;10.078;2023-02-20T13:34:35;101143.19;;;7.18;100.00
50103;BME280;35993;52.604;10.078;2023-02-20T13:37:02;101137.97;;;7.16;100.00
50103;BME280;35993;52.604;10.078;2023-02-20T13:41:59;101125.78;;;7.20;100.00
50103;BME280;35993;52.604;10.078;2023-02-20T13:44:40;101135.38;;;7.23;100.00
50103;BME280;35993;52.604;10.078;2023-02-20T13:52:37;101141.53;;;7.32;100.00
50103;BME280;35993;52.604;10.078;2023-02-20T13:55:14;101120.28;;;7.29;100.00
50103;BME280;35993;52.604;10.078;2023-02-20T13:57:46;101118.44;;;7.29;100.00
50103;BME280;35993;52.604;10.078;2023-02-20T14:00:26;101132.13;;;7.28;100.00
50103;BME280;35993;52.604;10.078;2023-02-20T14:02:53;101121.31;;;7.28;100.00
50103;BME280;35993;52.604;10.078;2023-02-20T14:05:28;101128.09;;;7.24;100.00
50103;BME280;35993;52.604;10.078;2023-02-20T14:07:55;101131.84;;;7.22;100.00
50103;BME280;35993;52.604;10.078;2023-02-20T14:15:59;101123.47;;;7.17;100.00
50103;BME280;35993;52.604;10.078;2023-02-20T14:21:04;101117.00;;;7.18;100.00
50103;BME280;35993;52.604;10.078;2023-02-20T14:23:33;101134.25;;;7.17;100.00
50103;BME280;35993;52.604;10.078;2023-02-20T14:26:02;101133.59;;;7.15;100.00
50103;BME280;35993;52.604;10.078;2023-02-20T14:28:29;101116.38;;;7.16;100.00